sensor_id;sensor_type;location;lat;lon;timestamp;P1;durP1;ratioP1;P2;durP2;ratioP2
32196;SDS011;18697;42.770;23.400;2022-09-27T00:00:14;5.07;;;3.95;;
32196;SDS011;18697;42.770;23.400;2022-09-27T00:02:40;7.22;;;4.65;;
32196;SDS011;18697;42.770;23.400;2022-09-27T00:05:05;5.32;;;4.13;;
32196;SDS011;18697;42.770;23.400;2022-09-27T00:07:31;4.50;;;4.10;;
32196;SDS011;18697;42.770;23.400;2022-09-27T00:09:57;6.65;;;4.50;;
32196;SDS011;18697;42.770;23.400;2022-09-27T00:12:23;5.60;;;4.22;;
32196;SDS011;18697;42.770;23.400;2022-09-27T00:14:48;5.88;;;4.00;;
32196;SDS011;18697;42.770;23.400;2022-09-27T00:17:14;5.00;;;4.18;;
32196;SDS011;18697;42.770;23.400;2022-09-27T00:19:39;8.20;;;4.32;;
32196;SDS011;18697;42.770;23.400;2022-09-27T00:22:04;5.72;;;4.65;;
32196;SDS011;18697;42.770;23.400;2022-09-27T00:24:30;7.60;;;4.50;;
32196;SDS011;18697;42.770;23.400;2022-09-27T00:26:55;6.20;;;4.93;;
32196;SDS011;18697;42.770;23.400;2022-09-27T00:29:21;7.18;;;4.65;;
32196;SDS011;18697;42.770;23.400;2022-09-27T00:31:47;6.35;;;4.72;;
32196;SDS011;18697;42.770;23.400;2022-09-27T00:34:46;4.65;;;4.20;;
32196;SDS011;18697;42.770;23.400;2022-09-27T00:37:12;6.97;;;4.25;;
32196;SDS011;18697;42.770;23.400;2022-09-27T00:39:37;7.45;;;4.28;;
32196;SDS011;18697;42.770;23.400;2022-09-27T00:42:09;6.43;;;4.93;;
32196;SDS011;18697;42.770;23.400;2022-09-27T00:52:24;6.30;;;4.47;;
32196;SDS011;18697;42.770;23.400;2022-09-27T00:54:55;5.68;;;4.43;;
32196;SDS011;18697;42.770;23.400;2022-09-27T00:57:26;5.65;;;4.90;;
32196;SDS011;18697;42.770;23.400;2022-09-27T00:59:54;5.22;;;4.40;;
32196;SDS011;18697;42.770;23.400;2022-09-27T01:02:25;4.82;;;4.00;;
32196;SDS011;18697;42.770;23.400;2022-09-27T01:04:50;5.85;;;4.68;;
32196;SDS011;18697;42.770;23.400;2022-09-27T01:07:17;6.15;;;4.55;;
32196;SDS011;18697;42.770;23.400;2022-09-27T01:09:42;5.38;;;4.53;;
32196;SDS011;18697;42.770;23.400;2022-09-27T01:20:41;6.80;;;4.63;;
32196;SDS011;18697;42.770;23.400;2022-09-27T01:31:01;8.48;;;4.45;;
32196;SDS011;18697;42.770;23.400;2022-09-27T01:33:39;4.53;;;3.90;;
32196;SDS011;18697;42.770;23.400;2022-09-27T01:41:42;8.30;;;4.15;;
32196;SDS011;18697;42.770;23.400;2022-09-27T01:47:11;4.00;;;3.53;;
32196;SDS011;18697;42.770;23.400;2022-09-27T01:50:03;3.75;;;3.45;;
32196;SDS011;18697;42.770;23.400;2022-09-27T01:52:31;4.25;;;3.63;;
32196;SDS011;18697;42.770;23.400;2022-09-27T01:55:03;4.85;;;3.72;;
32196;SDS011;18697;42.770;23.400;2022-09-27T01:57:38;6.07;;;3.80;;
32196;SDS011;18697;42.770;23.400;2022-09-27T02:00:08;7.53;;;4.07;;
32196;SDS011;18697;42.770;23.400;2022-09-27T02:02:37;4.35;;;3.72;;
32196;SDS011;18697;42.770;23.400;2022-09-27T02:05:07;6.50;;;4.35;;
32196;SDS011;18697;42.770;23.400;2022-09-27T02:07:39;5.32;;;3.63;;
32196;SDS011;18697;42.770;23.400;2022-09-27T02:10:18;5.90;;;3.92;;
32196;SDS011;18697;42.770;23.400;2022-09-27T02:13:14;4.25;;;3.85;;
32196;SDS011;18697;42.770;23.400;2022-09-27T02:15:46;6.18;;;3.90;;
32196;SDS011;18697;42.770;23.400;2022-09-27T02:18:33;5.53;;;4.32;;
32196;SDS011;18697;42.770;23.400;2022-09-27T02:21:06;9.57;;;4.85;;
32196;SDS011;18697;42.770;23.400;2022-09-27T02:23:40;9.07;;;5.28;;
32196;SDS011;18697;42.770;23.400;2022-09-27T02:26:24;6.43;;;4.13;;
32196;SDS011;18697;42.770;23.400;2022-09-27T02:31:26;5.07;;;4.53;;
32196;SDS011;18697;42.770;23.400;2022-09-27T02:33:54;8.85;;;4.88;;
32196;SDS011;18697;42.770;23.400;2022-09-27T02:36:24;8.02;;;4.68;;
32196;SDS011;18697;42.770;23.400;2022-09-27T02:38:50;9.73;;;6.15;;
32196;SDS011;18697;42.770;23.400;2022-09-27T02:41:16;9.07;;;5.70;;
32196;SDS011;18697;42.770;23.400;2022-09-27T02:43:44;8.43;;;6.00;;
32196;SDS011;18697;42.770;23.400;2022-09-27T02:49:03;8.27;;;5.35;;
32196;SDS011;18697;42.770;23.400;2022-09-27T02:54:22;10.40;;;5.68;;
32196;SDS011;18697;42.770;23.400;2022-09-27T03:05:59;8.57;;;5.25;;
32196;SDS011;18697;42.770;23.400;2022-09-27T03:08:26;8.70;;;5.93;;
32196;SDS011;18697;42.770;23.400;2022-09-27T03:10:51;6.45;;;4.93;;
32196;SDS011;18697;42.770;23.400;2022-09-27T03:13:17;7.63;;;4.60;;
32196;SDS011;18697;42.770;23.400;2022-09-27T03:15:42;7.88;;;4.40;;
32196;SDS011;18697;42.770;23.400;2022-09-27T03:18:08;8.40;;;5.35;;
32196;SDS011;18697;42.770;23.400;2022-09-27T03:20:33;7.97;;;5.00;;
32196;SDS011;18697;42.770;23.400;2022-09-27T03:22:59;5.63;;;4.90;;
32196;SDS011;18697;42.770;23.400;2022-09-27T03:25:24;8.18;;;5.20;;
32196;SDS011;18697;42.770;23.400;2022-09-27T03:27:50;6.32;;;4.65;;
32196;SDS011;18697;42.770;23.400;2022-09-27T03:30:16;5.03;;;4.15;;
32196;SDS011;18697;42.770;23.400;2022-09-27T03:32:44;5.55;;;4.22;;
32196;SDS011;18697;42.770;23.400;2022-09-27T03:35:10;5.28;;;4.78;;
32196;SDS011;18697;42.770;23.400;2022-09-27T03:37:37;6.88;;;5.10;;
32196;SDS011;18697;42.770;23.400;2022-09-27T03:40:03;8.88;;;5.78;;
32196;SDS011;18697;42.770;23.400;2022-09-27T03:42:29;8.90;;;6.50;;
32196;SDS011;18697;42.770;23.400;2022-09-27T03:44:54;16.23;;;8.25;;
32196;SDS011;18697;42.770;23.400;2022-09-27T03:47:20;11.32;;;8.60;;
32196;SDS011;18697;42.770;23.400;2022-09-27T03:49:46;54.00;;;38.78;;
32196;SDS011;18697;42.770;23.400;2022-09-27T03:52:12;25.13;;;14.13;;
32196;SDS011;18697;42.770;23.400;2022-09-27T03:54:37;17.15;;;10.15;;
32196;SDS011;18697;42.770;23.400;2022-09-27T03:57:03;13.32;;;9.20;;
32196;SDS011;18697;42.770;23.400;2022-09-27T03:59:29;19.58;;;10.40;;
32196;SDS011;18697;42.770;23.400;2022-09-27T04:01:54;14.20;;;8.90;;
32196;SDS011;18697;42.770;23.400;2022-09-27T04:04:20;8.43;;;5.82;;
32196;SDS011;18697;42.770;23.400;2022-09-27T04:06:45;28.48;;;16.67;;
32196;SDS011;18697;42.770;23.400;2022-09-27T04:09:11;32.88;;;17.80;;
32196;SDS011;18697;42.770;23.400;2022-09-27T04:11:36;21.38;;;13.40;;
32196;SDS011;18697;42.770;23.400;2022-09-27T04:14:02;33.22;;;21.35;;
32196;SDS011;18697;42.770;23.400;2022-09-27T04:16:29;45.40;;;26.45;;
32196;SDS011;18697;42.770;23.400;2022-09-27T04:18:54;29.33;;;19.02;;
32196;SDS011;18697;42.770;23.400;2022-09-27T04:21:20;46.25;;;26.25;;
32196;SDS011;18697;42.770;23.400;2022-09-27T04:23:46;43.80;;;27.23;;
32196;SDS011;18697;42.770;23.400;2022-09-27T04:26:11;42.13;;;26.77;;
32196;SDS011;18697;42.770;23.400;2022-09-27T04:28:37;39.53;;;24.92;;
32196;SDS011;18697;42.770;23.400;2022-09-27T04:31:03;5.30;;;4.80;;
32196;SDS011;18697;42.770;23.400;2022-09-27T04:33:28;9.50;;;6.75;;
32196;SDS011;18697;42.770;23.400;2022-09-27T04:35:54;45.22;;;28.05;;
32196;SDS011;18697;42.770;23.400;2022-09-27T04:38:37;44.10;;;26.85;;
32196;SDS011;18697;42.770;23.400;2022-09-27T04:41:03;43.30;;;25.75;;
32196;SDS011;18697;42.770;23.400;2022-09-27T04:43:29;39.05;;;25.55;;
32196;SDS011;18697;42.770;23.400;2022-09-27T04:45:54;47.17;;;29.70;;
32196;SDS011;18697;42.770;23.400;2022-09-27T04:48:19;29.17;;;18.67;;
32196;SDS011;18697;42.770;23.400;2022-09-27T04:50:45;46.28;;;28.17;;
32196;SDS011;18697;42.770;23.400;2022-09-27T04:53:13;36.90;;;23.95;;
32196;SDS011;18697;42.770;23.400;2022-09-27T04:55:43;40.03;;;26.05;;
32196;SDS011;18697;42.770;23.400;2022-09-27T04:58:09;32.58;;;22.05;;
32196;SDS011;18697;42.770;23.400;2022-09-27T05:00:35;37.42;;;23.48;;
32196;SDS011;18697;42.770;23.400;2022-09-27T05:03:00;36.55;;;24.88;;
32196;SDS011;18697;42.770;23.400;2022-09-27T05:05:26;43.33;;;25.55;;
32196;SDS011;18697;42.770;23.400;2022-09-27T05:07:51;34.80;;;21.63;;
32196;SDS011;18697;42.770;23.400;2022-09-27T05:10:17;37.13;;;23.55;;
32196;SDS011;18697;42.770;23.400;2022-09-27T05:12:42;34.33;;;22.10;;
32196;SDS011;18697;42.770;23.400;2022-09-27T05:15:08;39.00;;;24.15;;
32196;SDS011;18697;42.770;23.400;2022-09-27T05:17:33;33.08;;;22.00;;
32196;SDS011;18697;42.770;23.400;2022-09-27T05:19:59;16.08;;;10.95;;
32196;SDS011;18697;42.770;23.400;2022-09-27T05:22:24;29.55;;;19.55;;
32196;SDS011;18697;42.770;23.400;2022-09-27T05:24:49;33.55;;;20.00;;
32196;SDS011;18697;42.770;23.400;2022-09-27T05:27:15;28.40;;;19.73;;
32196;SDS011;18697;42.770;23.400;2022-09-27T05:29:44;17.58;;;12.75;;
32196;SDS011;18697;42.770;23.400;2022-09-27T05:32:12;20.17;;;13.30;;
32196;SDS011;18697;42.770;23.400;2022-09-27T05:34:38;22.13;;;14.50;;
32196;SDS011;18697;42.770;23.400;2022-09-27T05:37:04;27.92;;;17.05;;
32196;SDS011;18697;42.770;23.400;2022-09-27T05:39:29;25.13;;;16.77;;
32196;SDS011;18697;42.770;23.400;2022-09-27T05:41:55;18.48;;;12.55;;
32196;SDS011;18697;42.770;23.400;2022-09-27T05:44:21;13.40;;;10.43;;
32196;SDS011;18697;42.770;23.400;2022-09-27T05:46:47;23.38;;;14.30;;
32196;SDS011;18697;42.770;23.400;2022-09-27T05:49:12;7.00;;;6.30;;
32196;SDS011;18697;42.770;23.400;2022-09-27T05:51:38;12.50;;;8.07;;
32196;SDS011;18697;42.770;23.400;2022-09-27T05:54:03;19.38;;;13.27;;
32196;SDS011;18697;42.770;23.400;2022-09-27T05:56:28;20.10;;;13.60;;
32196;SDS011;18697;42.770;23.400;2022-09-27T05:58:54;16.10;;;10.23;;
32196;SDS011;18697;42.770;23.400;2022-09-27T06:01:19;14.27;;;9.45;;
32196;SDS011;18697;42.770;23.400;2022-09-27T06:03:45;14.50;;;10.68;;
32196;SDS011;18697;42.770;23.400;2022-09-27T06:06:11;9.00;;;7.95;;
32196;SDS011;18697;42.770;23.400;2022-09-27T06:08:37;13.02;;;10.13;;
32196;SDS011;18697;42.770;23.400;2022-09-27T06:11:04;11.05;;;9.20;;
32196;SDS011;18697;42.770;23.400;2022-09-27T06:13:32;11.43;;;8.85;;
32196;SDS011;18697;42.770;23.400;2022-09-27T06:15:58;11.98;;;9.32;;
32196;SDS011;18697;42.770;23.400;2022-09-27T06:18:24;15.57;;;9.88;;
32196;SDS011;18697;42.770;23.400;2022-09-27T06:20:49;17.13;;;10.57;;
32196;SDS011;18697;42.770;23.400;2022-09-27T06:23:16;13.65;;;9.30;;
32196;SDS011;18697;42.770;23.400;2022-09-27T06:25:43;12.07;;;8.98;;
32196;SDS011;18697;42.770;23.400;2022-09-27T06:28:09;18.38;;;13.05;;
32196;SDS011;18697;42.770;23.400;2022-09-27T06:30:39;22.88;;;13.40;;
32196;SDS011;18697;42.770;23.400;2022-09-27T06:33:10;20.02;;;12.95;;
32196;SDS011;18697;42.770;23.400;2022-09-27T06:35:37;15.80;;;10.30;;
32196;SDS011;18697;42.770;23.400;2022-09-27T06:38:04;16.33;;;11.00;;
32196;SDS011;18697;42.770;23.400;2022-09-27T06:40:34;11.40;;;9.20;;
32196;SDS011;18697;42.770;23.400;2022-09-27T06:43:00;16.35;;;10.15;;
32196;SDS011;18697;42.770;23.400;2022-09-27T06:45:30;16.08;;;9.80;;
32196;SDS011;18697;42.770;23.400;2022-09-27T06:47:57;15.85;;;11.40;;
32196;SDS011;18697;42.770;23.400;2022-09-27T06:50:26;11.32;;;8.68;;
32196;SDS011;18697;42.770;23.400;2022-09-27T06:52:53;11.15;;;7.95;;
32196;SDS011;18697;42.770;23.400;2022-09-27T06:55:19;11.40;;;8.10;;
32196;SDS011;18697;42.770;23.400;2022-09-27T06:57:44;14.75;;;8.88;;
32196;SDS011;18697;42.770;23.400;2022-09-27T07:00:27;19.77;;;12.05;;
32196;SDS011;18697;42.770;23.400;2022-09-27T07:02:54;15.00;;;10.75;;
32196;SDS011;18697;42.770;23.400;2022-09-27T07:05:25;14.02;;;10.40;;
32196;SDS011;18697;42.770;23.400;2022-09-27T07:07:53;10.38;;;7.90;;
32196;SDS011;18697;42.770;23.400;2022-09-27T07:10:21;14.65;;;9.75;;
32196;SDS011;18697;42.770;23.400;2022-09-27T07:12:51;15.32;;;11.05;;
32196;SDS011;18697;42.770;23.400;2022-09-27T07:15:18;16.27;;;10.80;;
32196;SDS011;18697;42.770;23.400;2022-09-27T07:17:56;16.38;;;10.13;;
32196;SDS011;18697;42.770;23.400;2022-09-27T07:20:23;12.43;;;8.10;;
32196;SDS011;18697;42.770;23.400;2022-09-27T07:22:49;9.95;;;8.30;;
32196;SDS011;18697;42.770;23.400;2022-09-27T07:25:14;13.30;;;9.60;;
32196;SDS011;18697;42.770;23.400;2022-09-27T07:30:06;7.40;;;6.70;;
32196;SDS011;18697;42.770;23.400;2022-09-27T07:32:32;14.88;;;8.27;;
32196;SDS011;18697;42.770;23.400;2022-09-27T07:34:59;10.52;;;7.97;;
32196;SDS011;18697;42.770;23.400;2022-09-27T07:37:25;14.02;;;8.65;;
32196;SDS011;18697;42.770;23.400;2022-09-27T07:39:50;9.25;;;7.40;;
32196;SDS011;18697;42.770;23.400;2022-09-27T07:42:16;9.23;;;7.60;;
32196;SDS011;18697;42.770;23.400;2022-09-27T07:44:41;9.07;;;6.78;;
32196;SDS011;18697;42.770;23.400;2022-09-27T07:47:07;10.45;;;7.03;;
32196;SDS011;18697;42.770;23.400;2022-09-27T07:49:32;12.40;;;6.65;;
32196;SDS011;18697;42.770;23.400;2022-09-27T07:51:58;13.43;;;9.75;;
32196;SDS011;18697;42.770;23.400;2022-09-27T07:54:23;7.95;;;6.60;;
32196;SDS011;18697;42.770;23.400;2022-09-27T07:56:48;9.20;;;7.28;;
32196;SDS011;18697;42.770;23.400;2022-09-27T08:01:39;10.15;;;6.90;;
32196;SDS011;18697;42.770;23.400;2022-09-27T08:06:30;10.13;;;7.95;;
32196;SDS011;18697;42.770;23.400;2022-09-27T08:08:55;10.23;;;8.27;;
32196;SDS011;18697;42.770;23.400;2022-09-27T08:11:22;12.98;;;8.85;;
32196;SDS011;18697;42.770;23.400;2022-09-27T08:13:48;12.40;;;9.00;;
32196;SDS011;18697;42.770;23.400;2022-09-27T08:16:16;10.88;;;8.52;;
32196;SDS011;18697;42.770;23.400;2022-09-27T08:18:42;17.25;;;11.25;;
32196;SDS011;18697;42.770;23.400;2022-09-27T08:21:07;15.73;;;11.23;;
32196;SDS011;18697;42.770;23.400;2022-09-27T08:25:58;13.98;;;10.40;;
32196;SDS011;18697;42.770;23.400;2022-09-27T08:28:24;11.73;;;10.30;;
32196;SDS011;18697;42.770;23.400;2022-09-27T08:30:51;12.75;;;10.07;;
32196;SDS011;18697;42.770;23.400;2022-09-27T08:33:16;14.65;;;9.77;;
32196;SDS011;18697;42.770;23.400;2022-09-27T08:35:42;14.68;;;10.10;;
32196;SDS011;18697;42.770;23.400;2022-09-27T08:38:08;15.68;;;11.25;;
32196;SDS011;18697;42.770;23.400;2022-09-27T08:43:18;19.17;;;13.05;;
32196;SDS011;18697;42.770;23.400;2022-09-27T08:48:27;17.38;;;12.25;;
32196;SDS011;18697;42.770;23.400;2022-09-27T08:50:54;12.38;;;8.48;;
32196;SDS011;18697;42.770;23.400;2022-09-27T08:53:27;12.50;;;9.05;;
32196;SDS011;18697;42.770;23.400;2022-09-27T08:56:00;17.00;;;11.10;;
32196;SDS011;18697;42.770;23.400;2022-09-27T09:01:05;14.15;;;9.93;;
32196;SDS011;18697;42.770;23.400;2022-09-27T09:03:37;16.90;;;10.27;;
32196;SDS011;18697;42.770;23.400;2022-09-27T09:14:57;10.43;;;8.18;;
32196;SDS011;18697;42.770;23.400;2022-09-27T09:17:36;9.07;;;7.50;;
32196;SDS011;18697;42.770;23.400;2022-09-27T09:22:46;11.82;;;8.95;;
32196;SDS011;18697;42.770;23.400;2022-09-27T09:30:43;11.95;;;8.73;;
32196;SDS011;18697;42.770;23.400;2022-09-27T09:33:23;9.00;;;7.13;;
32196;SDS011;18697;42.770;23.400;2022-09-27T09:38:45;9.88;;;7.20;;
32196;SDS011;18697;42.770;23.400;2022-09-27T09:41:30;7.85;;;6.60;;
32196;SDS011;18697;42.770;23.400;2022-09-27T09:46:56;7.55;;;6.75;;
32196;SDS011;18697;42.770;23.400;2022-09-27T09:51:55;7.03;;;5.88;;
32196;SDS011;18697;42.770;23.400;2022-09-27T09:54:36;6.53;;;5.78;;
32196;SDS011;18697;42.770;23.400;2022-09-27T10:04:56;6.75;;;5.97;;
32196;SDS011;18697;42.770;23.400;2022-09-27T10:07:22;6.70;;;5.85;;
32196;SDS011;18697;42.770;23.400;2022-09-27T10:09:49;7.63;;;6.22;;
32196;SDS011;18697;42.770;23.400;2022-09-27T10:12:16;6.25;;;5.32;;
32196;SDS011;18697;42.770;23.400;2022-09-27T10:14:43;6.22;;;5.63;;
32196;SDS011;18697;42.770;23.400;2022-09-27T10:17:11;9.90;;;8.02;;
32196;SDS011;18697;42.770;23.400;2022-09-27T10:19:41;27.85;;;20.23;;
32196;SDS011;18697;42.770;23.400;2022-09-27T10:22:13;44.15;;;30.17;;
32196;SDS011;18697;42.770;23.400;2022-09-27T10:24:56;33.38;;;22.42;;
32196;SDS011;18697;42.770;23.400;2022-09-27T10:27:24;25.52;;;19.27;;
32196;SDS011;18697;42.770;23.400;2022-09-27T10:29:56;30.40;;;21.67;;
32196;SDS011;18697;42.770;23.400;2022-09-27T10:32:24;11.05;;;9.02;;
32196;SDS011;18697;42.770;23.400;2022-09-27T10:34:55;15.02;;;12.15;;
32196;SDS011;18697;42.770;23.400;2022-09-27T10:37:21;13.77;;;10.40;;
32196;SDS011;18697;42.770;23.400;2022-09-27T10:39:48;17.88;;;13.30;;
32196;SDS011;18697;42.770;23.400;2022-09-27T10:42:19;9.02;;;7.07;;
32196;SDS011;18697;42.770;23.400;2022-09-27T10:44:56;9.07;;;6.03;;
32196;SDS011;18697;42.770;23.400;2022-09-27T10:47:22;15.13;;;11.07;;
32196;SDS011;18697;42.770;23.400;2022-09-27T10:49:50;6.90;;;5.03;;
32196;SDS011;18697;42.770;23.400;2022-09-27T10:52:19;8.70;;;6.82;;
32196;SDS011;18697;42.770;23.400;2022-09-27T10:55:12;5.38;;;4.97;;
32196;SDS011;18697;42.770;23.400;2022-09-27T10:57:48;10.75;;;9.48;;
32196;SDS011;18697;42.770;23.400;2022-09-27T11:00:28;8.20;;;6.55;;
32196;SDS011;18697;42.770;23.400;2022-09-27T11:02:58;13.30;;;7.40;;
32196;SDS011;18697;42.770;23.400;2022-09-27T11:07:56;10.93;;;8.43;;
32196;SDS011;18697;42.770;23.400;2022-09-27T11:10:30;8.90;;;6.40;;
32196;SDS011;18697;42.770;23.400;2022-09-27T11:21:36;6.18;;;5.55;;
32196;SDS011;18697;42.770;23.400;2022-09-27T11:38:29;5.00;;;4.47;;
32196;SDS011;18697;42.770;23.400;2022-09-27T11:43:58;5.22;;;4.72;;
32196;SDS011;18697;42.770;23.400;2022-09-27T11:46:38;5.60;;;5.10;;
32196;SDS011;18697;42.770;23.400;2022-09-27T11:57:41;4.53;;;4.13;;
32196;SDS011;18697;42.770;23.400;2022-09-27T12:00:22;8.10;;;4.65;;
32196;SDS011;18697;42.770;23.400;2022-09-27T12:08:35;5.35;;;4.07;;
32196;SDS011;18697;42.770;23.400;2022-09-27T12:14:36;7.22;;;3.83;;
32196;SDS011;18697;42.770;23.400;2022-09-27T12:16:42;5.85;;;3.95;;
32196;SDS011;18697;42.770;23.400;2022-09-27T12:19:13;4.97;;;4.47;;
32196;SDS011;18697;42.770;23.400;2022-09-27T12:21:43;6.05;;;4.03;;
32196;SDS011;18697;42.770;23.400;2022-09-27T12:24:14;9.43;;;4.30;;
32196;SDS011;18697;42.770;23.400;2022-09-27T12:26:44;4.25;;;3.60;;
32196;SDS011;18697;42.770;23.400;2022-09-27T12:32:05;4.80;;;3.72;;
32196;SDS011;18697;42.770;23.400;2022-09-27T12:34:41;4.15;;;3.72;;
32196;SDS011;18697;42.770;23.400;2022-09-27T12:37:20;4.13;;;3.50;;
32196;SDS011;18697;42.770;23.400;2022-09-27T12:45:30;4.32;;;3.90;;
32196;SDS011;18697;42.770;23.400;2022-09-27T12:50:30;4.70;;;4.03;;
32196;SDS011;18697;42.770;23.400;2022-09-27T12:52:59;5.18;;;3.55;;
32196;SDS011;18697;42.770;23.400;2022-09-27T12:55:36;5.45;;;3.30;;
32196;SDS011;18697;42.770;23.400;2022-09-27T13:06:43;6.22;;;4.30;;
32196;SDS011;18697;42.770;23.400;2022-09-27T13:09:32;6.43;;;4.15;;
32196;SDS011;18697;42.770;23.400;2022-09-27T13:12:08;4.90;;;3.63;;
32196;SDS011;18697;42.770;23.400;2022-09-27T13:22:51;4.25;;;2.97;;
32196;SDS011;18697;42.770;23.400;2022-09-27T13:41:41;1.60;;;1.50;;
32196;SDS011;18697;42.770;23.400;2022-09-27T13:47:43;4.63;;;2.20;;
32196;SDS011;18697;42.770;23.400;2022-09-27T13:53:18;6.70;;;1.30;;
32196;SDS011;18697;42.770;23.400;2022-09-27T13:55:50;3.05;;;2.10;;
32196;SDS011;18697;42.770;23.400;2022-09-27T13:58:31;3.80;;;2.20;;
32196;SDS011;18697;42.770;23.400;2022-09-27T14:01:27;1.73;;;1.63;;
32196;SDS011;18697;42.770;23.400;2022-09-27T14:04:16;7.20;;;2.60;;
32196;SDS011;18697;42.770;23.400;2022-09-27T14:06:51;2.15;;;1.88;;
32196;SDS011;18697;42.770;23.400;2022-09-27T14:09:39;2.30;;;2.08;;
32196;SDS011;18697;42.770;23.400;2022-09-27T14:12:15;3.80;;;2.30;;
32196;SDS011;18697;42.770;23.400;2022-09-27T14:14:43;2.28;;;2.08;;
32196;SDS011;18697;42.770;23.400;2022-09-27T14:17:11;2.45;;;1.95;;
32196;SDS011;18697;42.770;23.400;2022-09-27T14:19:40;3.28;;;2.15;;
32196;SDS011;18697;42.770;23.400;2022-09-27T14:22:15;2.20;;;2.00;;
32196;SDS011;18697;42.770;23.400;2022-09-27T14:24:53;1.80;;;1.70;;
32196;SDS011;18697;42.770;23.400;2022-09-27T14:29:49;2.83;;;2.23;;
32196;SDS011;18697;42.770;23.400;2022-09-27T14:32:24;2.38;;;1.77;;
32196;SDS011;18697;42.770;23.400;2022-09-27T14:38:02;25.17;;;3.97;;
32196;SDS011;18697;42.770;23.400;2022-09-27T14:40:30;8.60;;;3.20;;
32196;SDS011;18697;42.770;23.400;2022-09-27T14:43:02;8.02;;;3.15;;
32196;SDS011;18697;42.770;23.400;2022-09-27T14:45:32;8.50;;;3.00;;
32196;SDS011;18697;42.770;23.400;2022-09-27T14:48:01;5.03;;;2.97;;
32196;SDS011;18697;42.770;23.400;2022-09-27T14:50:41;9.30;;;3.00;;
32196;SDS011;18697;42.770;23.400;2022-09-27T14:55:47;5.88;;;3.20;;
32196;SDS011;18697;42.770;23.400;2022-09-27T14:58:13;5.10;;;3.08;;
32196;SDS011;18697;42.770;23.400;2022-09-27T15:00:39;6.47;;;2.47;;
32196;SDS011;18697;42.770;23.400;2022-09-27T15:03:11;6.18;;;3.08;;
32196;SDS011;18697;42.770;23.400;2022-09-27T15:05:44;5.15;;;3.13;;
32196;SDS011;18697;42.770;23.400;2022-09-27T15:08:10;4.30;;;3.03;;
32196;SDS011;18697;42.770;23.400;2022-09-27T15:10:39;6.72;;;3.13;;
32196;SDS011;18697;42.770;23.400;2022-09-27T15:13:05;11.45;;;3.83;;
32196;SDS011;18697;42.770;23.400;2022-09-27T15:15:32;7.13;;;3.70;;
32196;SDS011;18697;42.770;23.400;2022-09-27T15:17:59;10.70;;;4.20;;
32196;SDS011;18697;42.770;23.400;2022-09-27T15:20:27;17.55;;;4.43;;
32196;SDS011;18697;42.770;23.400;2022-09-27T15:22:55;12.43;;;3.90;;
32196;SDS011;18697;42.770;23.400;2022-09-27T15:28:00;9.98;;;3.45;;
32196;SDS011;18697;42.770;23.400;2022-09-27T15:30:39;9.35;;;4.20;;
32196;SDS011;18697;42.770;23.400;2022-09-27T15:33:06;6.32;;;3.75;;
32196;SDS011;18697;42.770;23.400;2022-09-27T15:35:56;10.98;;;3.13;;
32196;SDS011;18697;42.770;23.400;2022-09-27T15:43:42;12.63;;;2.63;;
32196;SDS011;18697;42.770;23.400;2022-09-27T15:51:42;3.70;;;1.48;;
32196;SDS011;18697;42.770;23.400;2022-09-27T15:54:09;9.40;;;1.67;;
32196;SDS011;18697;42.770;23.400;2022-09-27T15:56:35;6.50;;;2.17;;
32196;SDS011;18697;42.770;23.400;2022-09-27T15:59:01;3.10;;;2.08;;
32196;SDS011;18697;42.770;23.400;2022-09-27T16:01:27;2.97;;;1.52;;
32196;SDS011;18697;42.770;23.400;2022-09-27T16:06:18;8.07;;;3.28;;
32196;SDS011;18697;42.770;23.400;2022-09-27T16:08:44;4.32;;;2.20;;
32196;SDS011;18697;42.770;23.400;2022-09-27T16:11:11;5.50;;;2.38;;
32196;SDS011;18697;42.770;23.400;2022-09-27T16:13:39;3.08;;;2.17;;
32196;SDS011;18697;42.770;23.400;2022-09-27T16:16:04;3.63;;;2.13;;
32196;SDS011;18697;42.770;23.400;2022-09-27T16:18:30;2.67;;;2.03;;
32196;SDS011;18697;42.770;23.400;2022-09-27T16:20:57;2.95;;;2.00;;
32196;SDS011;18697;42.770;23.400;2022-09-27T16:23:23;2.67;;;1.90;;
32196;SDS011;18697;42.770;23.400;2022-09-27T16:25:48;3.65;;;2.20;;
32196;SDS011;18697;42.770;23.400;2022-09-27T16:28:16;2.05;;;1.85;;
32196;SDS011;18697;42.770;23.400;2022-09-27T16:30:42;2.90;;;1.88;;
32196;SDS011;18697;42.770;23.400;2022-09-27T16:33:09;13.20;;;7.53;;
32196;SDS011;18697;42.770;23.400;2022-09-27T16:35:34;9.65;;;5.68;;
32196;SDS011;18697;42.770;23.400;2022-09-27T16:38:04;7.65;;;3.92;;
32196;SDS011;18697;42.770;23.400;2022-09-27T16:40:29;6.55;;;3.90;;
32196;SDS011;18697;42.770;23.400;2022-09-27T16:42:55;7.35;;;2.72;;
32196;SDS011;18697;42.770;23.400;2022-09-27T16:45:21;6.00;;;2.08;;
32196;SDS011;18697;42.770;23.400;2022-09-27T16:47:46;5.60;;;2.90;;
32196;SDS011;18697;42.770;23.400;2022-09-27T16:50:12;9.65;;;3.78;;
32196;SDS011;18697;42.770;23.400;2022-09-27T16:52:57;6.40;;;2.78;;
32196;SDS011;18697;42.770;23.400;2022-09-27T16:55:24;6.57;;;2.92;;
32196;SDS011;18697;42.770;23.400;2022-09-27T16:57:52;9.20;;;3.33;;
32196;SDS011;18697;42.770;23.400;2022-09-27T17:00:18;3.88;;;2.92;;
32196;SDS011;18697;42.770;23.400;2022-09-27T17:02:47;3.10;;;2.63;;
32196;SDS011;18697;42.770;23.400;2022-09-27T17:05:13;4.05;;;2.35;;
32196;SDS011;18697;42.770;23.400;2022-09-27T17:07:39;4.95;;;2.03;;
32196;SDS011;18697;42.770;23.400;2022-09-27T17:10:05;2.85;;;2.30;;
32196;SDS011;18697;42.770;23.400;2022-09-27T17:12:31;3.97;;;2.40;;
32196;SDS011;18697;42.770;23.400;2022-09-27T17:14:58;4.05;;;1.98;;
32196;SDS011;18697;42.770;23.400;2022-09-27T17:17:23;3.03;;;2.25;;
32196;SDS011;18697;42.770;23.400;2022-09-27T17:19:49;6.13;;;2.75;;
32196;SDS011;18697;42.770;23.400;2022-09-27T17:22:15;5.53;;;3.33;;
32196;SDS011;18697;42.770;23.400;2022-09-27T17:24:41;5.28;;;2.85;;
32196;SDS011;18697;42.770;23.400;2022-09-27T17:29:31;3.47;;;2.50;;
32196;SDS011;18697;42.770;23.400;2022-09-27T17:31:57;5.68;;;2.60;;
32196;SDS011;18697;42.770;23.400;2022-09-27T17:34:24;6.15;;;2.10;;
32196;SDS011;18697;42.770;23.400;2022-09-27T17:36:51;5.30;;;2.70;;
32196;SDS011;18697;42.770;23.400;2022-09-27T17:39:17;6.97;;;3.92;;
32196;SDS011;18697;42.770;23.400;2022-09-27T17:41:45;24.02;;;15.82;;
32196;SDS011;18697;42.770;23.400;2022-09-27T17:44:13;34.40;;;21.73;;
32196;SDS011;18697;42.770;23.400;2022-09-27T17:46:39;61.45;;;39.30;;
32196;SDS011;18697;42.770;23.400;2022-09-27T17:49:05;21.80;;;14.70;;
32196;SDS011;18697;42.770;23.400;2022-09-27T17:51:50;32.08;;;19.48;;
32196;SDS011;18697;42.770;23.400;2022-09-27T17:54:17;56.45;;;36.13;;
32196;SDS011;18697;42.770;23.400;2022-09-27T17:56:45;41.95;;;27.83;;
32196;SDS011;18697;42.770;23.400;2022-09-27T17:59:11;44.65;;;31.75;;
32196;SDS011;18697;42.770;23.400;2022-09-27T18:01:39;39.38;;;25.00;;
32196;SDS011;18697;42.770;23.400;2022-09-27T18:04:07;34.60;;;24.95;;
32196;SDS011;18697;42.770;23.400;2022-09-27T18:06:35;31.48;;;20.73;;
32196;SDS011;18697;42.770;23.400;2022-09-27T18:09:12;25.77;;;13.90;;
32196;SDS011;18697;42.770;23.400;2022-09-27T18:11:39;30.60;;;20.42;;
32196;SDS011;18697;42.770;23.400;2022-09-27T18:14:05;30.15;;;19.15;;
32196;SDS011;18697;42.770;23.400;2022-09-27T18:16:32;34.63;;;22.45;;
32196;SDS011;18697;42.770;23.400;2022-09-27T18:19:03;33.72;;;21.48;;